createdAt,value
2022-12-23T00:10:20.363Z,98190.66
2022-12-23T00:17:49.031Z,98165.78
2022-12-23T00:20:56.996Z,98204.19
2022-12-23T00:23:58.760Z,98213.41
2022-12-23T00:27:00.588Z,98211.25
2022-12-23T00:30:06.025Z,98196.38
2022-12-23T00:33:31.387Z,98202.06
2022-12-23T00:36:38.286Z,98165.59
2022-12-23T00:40:02.718Z,98209.50
2022-12-23T00:43:07.808Z,98211.09
2022-12-23T00:46:09.675Z,98208.50
2022-12-23T00:49:32.088Z,98226.66
2022-12-23T00:52:33.919Z,98218.50
2022-12-23T00:55:35.663Z,98224.06
2022-12-23T00:58:46.609Z,98220.91
2022-12-23T01:02:45.453Z,98225.59
2022-12-23T01:05:54.467Z,98222.88
2022-12-23T01:08:56.466Z,98188.56
2022-12-23T01:12:10.471Z,98230.53
2022-12-23T01:15:30.060Z,98216.19
2022-12-23T01:18:36.095Z,98192.97
2022-12-23T01:21:37.932Z,98219.94
2022-12-23T01:25:16.348Z,98246.88
2022-12-23T01:28:19.572Z,98242.03
2022-12-23T01:31:45.807Z,98255.28
2022-12-23T01:38:39.184Z,98243.06
2022-12-23T01:42:10.509Z,98262.56
2022-12-23T01:45:48.745Z,98271.97
2022-12-23T01:48:57.383Z,98245.19
2022-12-23T01:56:30.821Z,98284.66
2022-12-23T01:59:54.167Z,98286.16
2022-12-23T02:03:14.752Z,98314.78
2022-12-23T02:06:51.571Z,98316.47
2022-12-23T02:09:53.251Z,98294.06
2022-12-23T02:13:07.388Z,98308.78
2022-12-23T02:16:16.904Z,98316.50
2022-12-23T02:19:30.230Z,98317.78
2022-12-23T02:23:01.576Z,98321.50
2022-12-23T02:26:51.066Z,98344.38
2022-12-23T02:30:20.119Z,98321.75
2022-12-23T02:33:51.092Z,98333.25
2022-12-23T02:36:58.824Z,98342.81
2022-12-23T02:40:12.327Z,98349.78
2022-12-23T03:00:33.289Z,98323.00
2022-12-23T03:03:42.574Z,98308.53
2022-12-23T03:09:36.279Z,98380.44
2022-12-23T03:11:48.526Z,98345.66
2022-12-23T03:15:27.665Z,98392.28
2022-12-23T03:18:47.360Z,98396.84
2022-12-23T03:22:07.516Z,98401.06
2022-12-23T03:25:19.382Z,98384.66
2022-12-23T03:28:46.163Z,98376.38
2022-12-23T03:31:49.669Z,98375.25
2022-12-23T03:35:19.526Z,98367.91
2022-12-23T03:57:23.817Z,98346.88
2022-12-23T04:00:42.017Z,98383.31
2022-12-23T04:04:02.416Z,98410.03
2022-12-23T04:07:18.396Z,98386.66
2022-12-23T04:10:34.252Z,98399.72
2022-12-23T04:13:36.622Z,98381.16
2022-12-23T04:17:06.067Z,98416.03
2022-12-23T04:20:38.312Z,98369.44
2022-12-23T04:23:58.434Z,98372.41
2022-12-23T04:32:07.967Z,98416.53
2022-12-23T04:35:24.438Z,98354.16
2022-12-23T04:38:36.069Z,98398.78
2022-12-23T04:51:38.565Z,98418.84
2022-12-23T04:55:10.796Z,98369.69
2022-12-23T04:59:09.983Z,98407.34
2022-12-23T05:02:27.526Z,98388.16
2022-12-23T05:10:30.792Z,98411.97
2022-12-23T05:13:57.731Z,98361.19
2022-12-23T05:18:21.822Z,98362.50
2022-12-23T05:30:39.820Z,98427.72
2022-12-23T05:51:13.627Z,98377.13
2022-12-23T05:55:29.521Z,98447.53
2022-12-23T06:02:53.610Z,98443.66
2022-12-23T06:06:57.230Z,98422.53
2022-12-23T06:10:54.926Z,98401.84
2022-12-23T06:13:59.857Z,98372.00
2022-12-23T06:17:10.803Z,98357.09
2022-12-23T06:38:44.428Z,98360.69
2022-12-23T06:46:57.601Z,98414.59
2022-12-23T06:50:01.913Z,98389.53
2022-12-23T06:53:11.527Z,98433.97
2022-12-23T06:56:41.958Z,98406.75
2022-12-23T06:59:57.345Z,98378.72
2022-12-23T07:03:02.043Z,98445.75
2022-12-23T07:06:09.084Z,98423.34
2022-12-23T07:09:26.257Z,98400.63
2022-12-23T07:21:19.693Z,98433.97
2022-12-23T07:24:47.339Z,98437.38
2022-12-23T07:36:12.610Z,98476.66
2022-12-23T07:39:23.340Z,98478.56
2022-12-23T07:42:44.065Z,98471.25
2022-12-23T07:46:00.247Z,98481.94
2022-12-23T07:52:47.893Z,98448.25
2022-12-23T07:55:57.079Z,98473.94
2022-12-23T07:58:59.061Z,98462.06
2022-12-23T08:06:00.515Z,98450.28
2022-12-23T08:09:09.278Z,98442.50
2022-12-23T08:12:33.115Z,98463.28
2022-12-23T08:15:34.867Z,98443.28
2022-12-23T08:18:50.353Z,98453.72
2022-12-23T08:29:42.812Z,98380.94
2022-12-23T08:32:48.078Z,98442.00
2022-12-23T08:43:07.482Z,98456.97
2022-12-23T08:46:20.491Z,98433.13
2022-12-23T08:53:31.331Z,98444.72
2022-12-23T08:56:48.329Z,98488.16
2022-12-23T09:00:13.719Z,98460.38
2022-12-23T09:03:43.865Z,98464.78
2022-12-23T09:07:14.695Z,98480.84
2022-12-23T09:10:24.623Z,98445.31
2022-12-23T09:13:54.648Z,98461.47
2022-12-23T09:17:04.837Z,98452.03
2022-12-23T09:23:51.578Z,98424.06
2022-12-23T09:30:22.207Z,98459.16
2022-12-23T09:33:52.808Z,98469.13
2022-12-23T09:36:55.748Z,98452.41
2022-12-23T09:41:10.146Z,98472.00
2022-12-23T09:44:24.884Z,98474.22
2022-12-23T09:47:29.693Z,98443.84
2022-12-23T09:50:33.676Z,98444.53
2022-12-23T09:54:12.014Z,98451.69
2022-12-23T09:57:43.458Z,98446.28
2022-12-23T10:01:27.840Z,98417.63
2022-12-23T10:04:55.521Z,98430.09
2022-12-23T10:08:28.431Z,98427.28
2022-12-23T10:11:51.410Z,98393.25
2022-12-23T10:15:17.120Z,98393.75
2022-12-23T10:18:53.483Z,98425.66
2022-12-23T10:22:48.434Z,98415.75
2022-12-23T10:26:31.652Z,98359.06
2022-12-23T10:33:24.942Z,98396.34
2022-12-23T10:36:57.751Z,98392.66
2022-12-23T10:40:33.144Z,98383.38
2022-12-23T10:43:55.400Z,98359.59
2022-12-23T10:47:28.225Z,98370.66
2022-12-23T10:50:57.643Z,98350.63
2022-12-23T10:54:31.191Z,98325.75
2022-12-23T10:58:05.739Z,98356.38
2022-12-23T11:01:18.919Z,98351.53
2022-12-23T11:04:38.164Z,98342.84
2022-12-23T11:13:05.466Z,98310.50
2022-12-23T11:16:42.334Z,98328.88
2022-12-23T11:19:47.027Z,98310.50
2022-12-23T11:22:59.839Z,98325.47
2022-12-23T11:26:37.226Z,98280.41
2022-12-23T11:29:57.071Z,98314.13
2022-12-23T11:34:21.373Z,98322.25
2022-12-23T11:37:27.403Z,98299.66
2022-12-23T11:40:43.192Z,98308.81
2022-12-23T11:44:08.317Z,98285.97
2022-12-23T11:47:22.275Z,98307.28
2022-12-23T11:50:24.321Z,98296.44
2022-12-23T11:53:30.379Z,98269.09
2022-12-23T11:56:47.135Z,98267.75
2022-12-23T11:59:59.002Z,98292.09
2022-12-23T12:03:06.409Z,98272.78
2022-12-23T12:06:17.168Z,98255.03
2022-12-23T12:09:24.313Z,98221.84
2022-12-23T12:13:18.619Z,98213.38
2022-12-23T12:16:48.042Z,98268.22
2022-12-23T12:20:20.235Z,98277.22
2022-12-23T12:23:33.898Z,98258.28
2022-12-23T12:26:37.979Z,98248.59
2022-12-23T12:29:45.494Z,98237.56
2022-12-23T12:33:05.637Z,98226.13
2022-12-23T12:36:30.227Z,98235.09
2022-12-23T12:39:39.128Z,98212.66
2022-12-23T12:42:42.716Z,98218.16
2022-12-23T12:46:04.884Z,98208.97
2022-12-23T12:49:25.601Z,98202.56
2022-12-23T12:52:28.255Z,98193.66
2022-12-23T12:55:35.237Z,98202.19
2022-12-23T12:58:40.922Z,98192.13
2022-12-23T13:01:57.427Z,98194.44
2022-12-23T13:05:17.412Z,98190.22
2022-12-23T13:08:40.992Z,98207.69
2022-12-23T13:12:17.633Z,98200.91
2022-12-23T13:16:00.099Z,98190.78
2022-12-23T13:19:40.746Z,98135.16
2022-12-23T13:23:27.049Z,98174.03
2022-12-23T13:27:12.721Z,98180.19
2022-12-23T13:30:17.867Z,98175.22
2022-12-23T13:33:30.876Z,98157.38
2022-12-23T13:36:51.045Z,98168.78
2022-12-23T13:40:20.677Z,98166.06
2022-12-23T13:43:26.005Z,98169.16
2022-12-23T13:50:43.874Z,98134.72
2022-12-23T13:58:15.900Z,98187.19
2022-12-23T14:01:17.843Z,98193.13
2022-12-23T14:02:48.764Z,98161.09
2022-12-23T14:04:36.328Z,98205.97
2022-12-23T14:07:45.738Z,98144.22
2022-12-23T14:11:55.486Z,98211.34
2022-12-23T14:20:13.467Z,98234.53
2022-12-23T14:24:04.560Z,98235.59
2022-12-23T14:35:26.743Z,98257.69
2022-12-23T14:39:41.443Z,98262.75
2022-12-23T14:42:44.725Z,98259.16
2022-12-23T14:45:46.620Z,98227.78
2022-12-23T14:49:16.174Z,98238.06
2022-12-23T14:52:49.007Z,98235.91
2022-12-23T14:56:10.952Z,98237.06
2022-12-23T14:59:12.764Z,98241.13
2022-12-23T15:02:27.303Z,98234.53
2022-12-23T15:05:29.234Z,98228.09
2022-12-23T15:08:35.482Z,98218.28
2022-12-23T15:11:37.523Z,98228.03
2022-12-23T15:14:52.083Z,98263.25
2022-12-23T15:18:11.943Z,98258.44
2022-12-23T15:21:15.350Z,98246.50
2022-12-23T15:24:23.427Z,98252.00
2022-12-23T15:27:28.020Z,98250.31
2022-12-23T15:35:08.289Z,98249.28
2022-12-23T15:42:54.642Z,98260.72
2022-12-23T15:46:29.686Z,98261.22
2022-12-23T15:50:21.782Z,98260.31
2022-12-23T15:53:31.461Z,98242.56
2022-12-23T15:56:44.325Z,98248.31
2022-12-23T15:59:46.435Z,98228.03
2022-12-23T16:03:01.253Z,98216.84
2022-12-23T16:06:22.461Z,98242.22
2022-12-23T16:09:34.783Z,98229.41
2022-12-23T16:12:44.327Z,98217.44
2022-12-23T16:15:49.217Z,98251.03
2022-12-23T16:19:03.551Z,98201.53
2022-12-23T16:30:52.336Z,98221.50
2022-12-23T16:34:05.274Z,98211.97
2022-12-23T16:37:08.137Z,98251.56
2022-12-23T16:40:14.315Z,98248.91
2022-12-23T16:43:16.353Z,98210.78
2022-12-23T16:46:29.067Z,98204.19
2022-12-23T16:49:42.872Z,98253.06
2022-12-23T16:52:46.583Z,98261.50
2022-12-23T16:55:55.035Z,98255.81
2022-12-23T16:59:02.843Z,98244.94
2022-12-23T17:05:35.766Z,98206.41
2022-12-23T17:08:40.298Z,98254.88
2022-12-23T17:11:54.487Z,98233.16
2022-12-23T17:14:57.359Z,98215.97
2022-12-23T17:17:59.131Z,98240.72
2022-12-23T17:21:41.000Z,98267.66
2022-12-23T17:24:45.498Z,98272.13
2022-12-23T17:27:51.708Z,98270.53
2022-12-23T17:30:55.233Z,98249.88
2022-12-23T17:33:56.941Z,98228.28
2022-12-23T17:37:00.742Z,98224.59
2022-12-23T17:40:02.576Z,98245.13
2022-12-23T17:43:04.500Z,98266.03
2022-12-23T17:46:06.290Z,98252.69
2022-12-23T17:49:18.673Z,98305.16
2022-12-23T17:52:35.746Z,98293.88
2022-12-23T17:55:39.424Z,98276.44
2022-12-23T17:59:05.860Z,98309.66
2022-12-23T18:02:35.398Z,98276.25
2022-12-23T18:05:37.285Z,98303.47
2022-12-23T18:09:08.032Z,98293.81
2022-12-23T18:16:44.459Z,98287.22
2022-12-23T18:25:00.603Z,98355.16
2022-12-23T18:28:14.843Z,98338.22
2022-12-23T18:34:42.092Z,98282.28
2022-12-23T18:37:43.829Z,98310.16
2022-12-23T18:41:09.635Z,98299.47
2022-12-23T18:44:27.587Z,98348.94
2022-12-23T18:47:29.290Z,98350.66
2022-12-23T18:50:36.326Z,98338.03
2022-12-23T18:53:41.741Z,98315.84
2022-12-23T18:56:53.825Z,98357.69
2022-12-23T19:00:11.723Z,98370.38
2022-12-23T19:03:28.460Z,98338.16
2022-12-23T19:06:30.736Z,98351.34
2022-12-23T19:09:35.424Z,98410.59
2022-12-23T19:12:37.110Z,98393.41
2022-12-23T19:15:40.555Z,98424.50
2022-12-23T19:18:42.619Z,98428.31
2022-12-23T19:21:44.226Z,98447.91
2022-12-23T19:25:04.093Z,98448.09
2022-12-23T19:28:12.339Z,98459.44
2022-12-23T19:31:18.213Z,98453.88
2022-12-23T19:34:19.839Z,98477.88
2022-12-23T19:37:21.446Z,98487.59
2022-12-23T19:40:25.711Z,98470.97
2022-12-23T19:43:27.300Z,98477.81
2022-12-23T19:46:29.000Z,98480.38
2022-12-23T19:49:33.787Z,98486.09
2022-12-23T19:52:38.124Z,98478.66
2022-12-23T19:55:39.807Z,98491.50
2022-12-23T19:59:00.271Z,98502.75
2022-12-23T20:02:24.966Z,98507.97
2022-12-23T20:06:01.826Z,98506.88
2022-12-23T20:10:08.309Z,98503.06
2022-12-23T20:13:17.505Z,98459.22
2022-12-23T20:16:46.140Z,98461.22
2022-12-23T20:19:51.086Z,98483.59
2022-12-23T20:23:34.922Z,98527.44
2022-12-23T20:26:49.337Z,98530.47
2022-12-23T20:29:51.051Z,98541.56
2022-12-23T20:36:27.262Z,98541.56
2022-12-23T20:39:29.051Z,98573.28
2022-12-23T20:42:31.356Z,98566.97
2022-12-23T20:45:32.907Z,98568.13
2022-12-23T20:48:35.028Z,98586.22
2022-12-23T20:51:36.610Z,98589.47
2022-12-23T20:54:38.323Z,98586.31
2022-12-23T20:57:40.641Z,98572.75
2022-12-23T21:00:42.227Z,98584.91
2022-12-23T21:03:44.129Z,98579.94
2022-12-23T21:06:46.139Z,98580.00
2022-12-23T21:09:47.836Z,98584.91
2022-12-23T21:12:49.578Z,98595.03
2022-12-23T21:15:52.163Z,98599.06
2022-12-23T21:18:53.910Z,98604.38
2022-12-23T21:21:57.097Z,98597.41
2022-12-23T21:24:58.683Z,98627.53
2022-12-23T21:28:00.493Z,98630.25
2022-12-23T21:31:11.660Z,98647.38
2022-12-23T21:34:14.499Z,98635.50
2022-12-23T21:37:16.352Z,98630.00
2022-12-23T21:40:18.070Z,98628.06
2022-12-23T21:43:19.808Z,98638.84
2022-12-23T21:46:43.031Z,98622.03
2022-12-23T21:49:51.376Z,98634.88
2022-12-23T21:52:53.215Z,98616.09
2022-12-23T21:56:00.861Z,98652.22
2022-12-23T21:59:08.679Z,98664.28
2022-12-23T22:02:16.665Z,98668.59
2022-12-23T22:05:19.224Z,98669.16
2022-12-23T22:08:27.946Z,98662.50
2022-12-23T22:11:31.661Z,98678.09
2022-12-23T22:14:34.595Z,98675.28
2022-12-23T22:17:36.428Z,98671.78
2022-12-23T22:20:45.845Z,98683.59
2022-12-23T22:23:49.437Z,98698.91
2022-12-23T22:26:55.870Z,98672.75
2022-12-23T22:29:57.682Z,98685.31
2022-12-23T22:32:59.399Z,98660.56
2022-12-23T22:36:01.280Z,98683.31
2022-12-23T22:39:03.650Z,98652.81
2022-12-23T22:42:07.591Z,98661.72
2022-12-23T22:45:13.826Z,98648.28
2022-12-23T22:48:19.399Z,98663.03
2022-12-23T22:51:24.056Z,98653.06
2022-12-23T22:54:25.753Z,98644.41
2022-12-23T22:57:27.801Z,98661.03
2022-12-23T23:00:30.648Z,98675.03
2022-12-23T23:03:32.766Z,98671.41
2022-12-23T23:06:39.927Z,98680.28
2022-12-23T23:09:43.638Z,98694.25
2022-12-23T23:12:49.490Z,98695.28
2022-12-23T23:15:56.762Z,98713.03
2022-12-23T23:19:02.930Z,98715.91
2022-12-23T23:22:10.668Z,98700.97
2022-12-23T23:25:12.442Z,98711.13
2022-12-23T23:28:17.108Z,98699.75
2022-12-23T23:34:47.703Z,98702.47
2022-12-23T23:37:58.619Z,98707.44
2022-12-23T23:41:03.506Z,98729.03
2022-12-23T23:44:05.893Z,98738.75
2022-12-23T23:47:07.646Z,98711.34
2022-12-23T23:50:09.771Z,98743.63
2022-12-23T23:53:12.006Z,98736.09
2022-12-23T23:56:13.738Z,98751.84
2022-12-23T23:59:15.509Z,98739.50
